Map

Track Data

SID SEASON NUMBER BASIN SUBBASIN NAME ISO_TIME NATURE LAT LON WMO_WIND WMO_PRES WMO_AGENCY TRACK_TYPE DIST2LAND LANDFALL IFLAG USA_AGENCY USA_ATCF_ID USA_LAT USA_LON USA_RECORD USA_STATUS USA_WIND USA_PRES USA_SSHS USA_R34_NE USA_R34_SE USA_R34_SW USA_R34_NW USA_R50_NE USA_R50_SE USA_R50_SW USA_R50_NW USA_R64_NE USA_R64_SE USA_R64_SW USA_R64_NW USA_POCI USA_ROCI USA_RMW USA_EYE TOKYO_LAT TOKYO_LON TOKYO_GRADE TOKYO_WIND TOKYO_PRES TOKYO_R50_DIR TOKYO_R50_LONG TOKYO_R50_SHORT TOKYO_R30_DIR TOKYO_R30_LONG TOKYO_R30_SHORT TOKYO_LAND CMA_LAT CMA_LON CMA_CAT CMA_WIND CMA_PRES HKO_LAT HKO_LON HKO_CAT HKO_WIND HKO_PRES NEWDELHI_LAT NEWDELHI_LON NEWDELHI_GRADE NEWDELHI_WIND NEWDELHI_PRES NEWDELHI_CI NEWDELHI_DP NEWDELHI_POCI REUNION_LAT REUNION_LON REUNION_TYPE REUNION_WIND REUNION_PRES REUNION_TNUM REUNION_CI REUNION_RMW REUNION_R34_NE REUNION_R34_SE REUNION_R34_SW REUNION_R34_NW REUNION_R50_NE REUNION_R50_SE REUNION_R50_SW REUNION_R50_NW REUNION_R64_NE REUNION_R64_SE REUNION_R64_SW REUNION_R64_NW BOM_LAT BOM_LON BOM_TYPE BOM_WIND BOM_PRES BOM_TNUM BOM_CI BOM_RMW BOM_R34_NE BOM_R34_SE BOM_R34_SW BOM_R34_NW BOM_R50_NE BOM_R50_SE BOM_R50_SW BOM_R50_NW BOM_R64_NE BOM_R64_SE BOM_R64_SW BOM_R64_NW BOM_ROCI BOM_POCI BOM_EYE BOM_POS_METHOD BOM_PRES_METHOD NADI_LAT NADI_LON NADI_CAT NADI_WIND NADI_PRES WELLINGTON_LAT WELLINGTON_LON WELLINGTON_WIND WELLINGTON_PRES DS824_LAT DS824_LON DS824_STAGE DS824_WIND DS824_PRES TD9636_LAT TD9636_LON TD9636_STAGE TD9636_WIND TD9636_PRES TD9635_LAT TD9635_LON TD9635_WIND TD9635_PRES TD9635_ROCI NEUMANN_LAT NEUMANN_LON NEUMANN_CLASS NEUMANN_WIND NEUMANN_PRES MLC_LAT MLC_LON MLC_CLASS MLC_WIND MLC_PRES USA_GUST BOM_GUST BOM_GUST_PER REUNION_GUST REUNION_GUST_PER USA_SEAHGT USA_SEARAD_NE USA_SEARAD_SE USA_SEARAD_SW USA_SEARAD_NW STORM_SPEED STORM_DIR
1912316N11280 1912 62 NA CS NOT_NAMED 1912-11-11 06:00:00 TS 11.2000 -79.7000 35 hurdat_atl main 190 190 O_____________ hurdat_atl AL071912 11.2000 -79.7000 TS 35 0 3 301
1912316N11280 1912 62 NA CS NOT_NAMED 1912-11-11 09:00:00 TS 11.2875 -79.8475 main 201 201 P_____________ AL071912 11.2875 -79.8475 TS 35 0 4 304
1912316N11280 1912 62 NA CS NOT_NAMED 1912-11-11 12:00:00 TS 11.4000 -80.0000 35 hurdat_atl main 215 215 O_____________ hurdat_atl AL071912 11.4000 -80.0000 TS 35 0 4 311
1912316N11280 1912 62 NA CS NOT_NAMED 1912-11-11 15:00:00 TS 11.5500 -80.1575 main 241 241 P_____________ AL071912 11.5500 -80.1575 TS 35 0 4 316
1912316N11280 1912 62 NA CS NOT_NAMED 1912-11-11 18:00:00 TS 11.7000 -80.3000 35 hurdat_atl main 255 255 O_____________ hurdat_atl AL071912 11.7000 -80.3000 TS 35 0 4 316
1912316N11280 1912 62 NA CS NOT_NAMED 1912-11-11 21:00:00 TS 11.8000 -80.4075 main 268 268 P_____________ AL071912 11.8000 -80.4075 TS 35 0 3 316
1912316N11280 1912 62 NA CS NOT_NAMED 1912-11-12 00:00:00 TS 11.9000 -80.5000 35 hurdat_atl main 282 282 O_____________ hurdat_atl AL071912 11.9000 -80.5000 TS 35 0 3 321
1912316N11280 1912 62 NA CS NOT_NAMED 1912-11-12 03:00:00 TS 12.0500 -80.6150 main 307 305 P_____________ AL071912 12.0500 -80.6150 TS 35 0 4 327
1912316N11280 1912 62 NA CS NOT_NAMED 1912-11-12 06:00:00 TS 12.2000 -80.7000 35 hurdat_atl main 305 304 O_____________ hurdat_atl AL071912 12.2000 -80.7000 TS 35 0 3 338
1912316N11280 1912 62 NA CS NOT_NAMED 1912-11-12 09:00:00 TS 12.3075 -80.7225 main 304 304 P_____________ AL071912 12.3075 -80.7225 TS 37 0 2 8
1912316N11280 1912 62 NA CS NOT_NAMED 1912-11-12 12:00:00 TS 12.4000 -80.7000 40 hurdat_atl main 304 304 O_____________ hurdat_atl AL071912 12.4000 -80.7000 TS 40 0 2 21
1912316N11280 1912 62 NA CS NOT_NAMED 1912-11-12 15:00:00 TS 12.5000 -80.6575 main 304 304 P_____________ AL071912 12.5000 -80.6575 TS 42 0 2 27
1912316N11280 1912 62 NA CS NOT_NAMED 1912-11-12 18:00:00 TS 12.6000 -80.6000 45 hurdat_atl main 314 314 O_____________ hurdat_atl AL071912 12.6000 -80.6000 TS 45 0 2 28
1912316N11280 1912 62 NA CS NOT_NAMED 1912-11-12 21:00:00 TS 12.7000 -80.5500 main 325 325 P_____________ AL071912 12.7000 -80.5500 TS 47 0 2 27
1912316N11280 1912 62 NA CS NOT_NAMED 1912-11-13 00:00:00 TS 12.8000 -80.5000 50 hurdat_atl main 325 325 O_____________ hurdat_atl AL071912 12.8000 -80.5000 TS 50 0 2 26
1912316N11280 1912 62 NA CS NOT_NAMED 1912-11-13 03:00:00 TS 12.9075 -80.4500 main 325 325 P_____________ AL071912 12.9075 -80.4500 TS 52 0 2 27
1912316N11280 1912 62 NA CS NOT_NAMED 1912-11-13 06:00:00 TS 13.0000 -80.4000 55 hurdat_atl main 335 331 O_____________ hurdat_atl AL071912 13.0000 -80.4000 TS 55 0 2 32
1912316N11280 1912 62 NA CS NOT_NAMED 1912-11-13 09:00:00 TS 13.0575 -80.3500 main 341 341 P_____________ AL071912 13.0575 -80.3500 TS 57 0 1 43
1912316N11280 1912 62 NA CS NOT_NAMED 1912-11-13 12:00:00 TS 13.1000 -80.3000 60 hurdat_atl main 341 336 O_____________ hurdat_atl AL071912 13.1000 -80.3000 TS 60 0 1 43
1912316N11280 1912 62 NA CS NOT_NAMED 1912-11-13 15:00:00 TS 13.1575 -80.2500 main 346 346 P_____________ AL071912 13.1575 -80.2500 TS 62 0 1 43
1912316N11280 1912 62 NA CS NOT_NAMED 1912-11-13 18:00:00 TS 13.2000 -80.2000 65 hurdat_atl main 346 346 O_____________ hurdat_atl AL071912 13.2000 -80.2000 HU 65 1 1 65
1912316N11280 1912 62 NA CS NOT_NAMED 1912-11-13 21:00:00 TS 13.2075 -80.1425 main 356 356 P_____________ AL071912 13.2075 -80.1425 HU 67 1 1 90
1912316N11280 1912 62 NA CS NOT_NAMED 1912-11-14 00:00:00 TS 13.2000 -80.1000 70 hurdat_atl main 356 356 O_____________ hurdat_atl AL071912 13.2000 -80.1000 HU 70 1 0 112
1912316N11280 1912 62 NA CS NOT_NAMED 1912-11-14 03:00:00 TS 13.1925 -80.1000 main 356 356 P_____________ AL071912 13.1925 -80.1000 HU 70 1 0 0
1912316N11280 1912 62 NA CS NOT_NAMED 1912-11-14 06:00:00 TS 13.2000 -80.1000 70 hurdat_atl main 356 356 O_____________ hurdat_atl AL071912 13.2000 -80.1000 HU 70 1 1 43
1912316N11280 1912 62 NA CS NOT_NAMED 1912-11-14 09:00:00 TS 13.2425 -80.0575 main 356 356 P_____________ AL071912 13.2425 -80.0575 HU 70 1 1 43
1912316N11280 1912 62 NA CS NOT_NAMED 1912-11-14 12:00:00 TS 13.3000 -80.0000 70 hurdat_atl main 363 363 O_____________ hurdat_atl AL071912 13.3000 -80.0000 HU 70 1 2 43
1912316N11280 1912 62 NA CS NOT_NAMED 1912-11-14 15:00:00 TS 13.3500 -79.9500 main 370 370 P_____________ AL071912 13.3500 -79.9500 HU 70 1 1 43
1912316N11280 1912 62 NA CS NOT_NAMED 1912-11-14 18:00:00 TS 13.4000 -79.9000 70 hurdat_atl main 370 370 O_____________ hurdat_atl AL071912 13.4000 -79.9000 HU 70 1 1 45
1912316N11280 1912 62 NA CS NOT_NAMED 1912-11-14 21:00:00 TS 13.4425 -79.8500 main 380 377 P_____________ AL071912 13.4425 -79.8500 HU 70 1 1 43
1912316N11280 1912 62 NA CS NOT_NAMED 1912-11-15 00:00:00 TS 13.5000 -79.8000 70 hurdat_atl main 377 375 O_____________ hurdat_atl AL071912 13.5000 -79.8000 HU 70 1 2 34
1912316N11280 1912 62 NA CS NOT_NAMED 1912-11-15 03:00:00 TS 13.5850 -79.7500 main 385 383 P_____________ AL071912 13.5850 -79.7500 HU 70 1 2 27
1912316N11280 1912 62 NA CS NOT_NAMED 1912-11-15 06:00:00 TS 13.7000 -79.7000 70 hurdat_atl main 383 381 O_____________ hurdat_atl AL071912 13.7000 -79.7000 HU 70 1 3 24
1912316N11280 1912 62 NA CS NOT_NAMED 1912-11-15 09:00:00 TS 13.8275 -79.6425 main 392 389 P_____________ AL071912 13.8275 -79.6425 HU 70 1 3 17
1912316N11280 1912 62 NA CS NOT_NAMED 1912-11-15 12:00:00 TS 14.0000 -79.6000 70 hurdat_atl main 389 387 O_____________ hurdat_atl AL071912 14.0000 -79.6000 HU 70 1 4 9
1912316N11280 1912 62 NA CS NOT_NAMED 1912-11-15 15:00:00 TS 14.2350 -79.5775 main 387 380 P_____________ AL071912 14.2350 -79.5775 HU 72 1 5 2
1912316N11280 1912 62 NA CS NOT_NAMED 1912-11-15 18:00:00 TS 14.5000 -79.6000 75 hurdat_atl main 380 367 O_____________ hurdat_atl AL071912 14.5000 -79.6000 HU 75 1 5 348
1912316N11280 1912 62 NA CS NOT_NAMED 1912-11-15 21:00:00 TS 14.7500 -79.6924 main 366 354 P_____________ AL071912 14.7500 -79.6924 HU 77 1 5 339
1912316N11280 1912 62 NA CS NOT_NAMED 1912-11-16 00:00:00 TS 15.0000 -79.8000 80 hurdat_atl main 354 344 O_____________ hurdat_atl AL071912 15.0000 -79.8000 HU 80 1 5 342
1912316N11280 1912 62 NA CS NOT_NAMED 1912-11-16 03:00:00 TS 15.2500 -79.8575 main 344 341 P_____________ AL071912 15.2500 -79.8575 HU 82 1 5 349
1912316N11280 1912 62 NA CS NOT_NAMED 1912-11-16 06:00:00 TS 15.5000 -79.9000 85 hurdat_atl main 341 317 O_____________ hurdat_atl AL071912 15.5000 -79.9000 HU 85 2 5 350
1912316N11280 1912 62 NA CS NOT_NAMED 1912-11-16 09:00:00 TS 15.7650 -79.9575 main 317 299 P_____________ AL071912 15.7650 -79.9575 HU 87 2 5 349
1912316N11280 1912 62 NA CS NOT_NAMED 1912-11-16 12:00:00 TS 16.0000 -80.0000 90 hurdat_atl main 299 281 O_____________ hurdat_atl AL071912 16.0000 -80.0000 HU 90 2 4 352
1912316N11280 1912 62 NA CS NOT_NAMED 1912-11-16 15:00:00 TS 16.1725 -80.0225 main 281 272 P_____________ AL071912 16.1725 -80.0225 HU 92 2 3 0
1912316N11280 1912 62 NA CS NOT_NAMED 1912-11-16 18:00:00 TS 16.3000 -80.0000 95 hurdat_atl main 272 256 O_____________ hurdat_atl AL071912 16.3000 -80.0000 HU 95 2 3 26
1912316N11280 1912 62 NA CS NOT_NAMED 1912-11-16 21:00:00 TS 16.4000 -79.9075 main 256 241 P_____________ AL071912 16.4000 -79.9075 HU 97 3 3 44
1912316N11280 1912 62 NA CS NOT_NAMED 1912-11-17 00:00:00 TS 16.5000 -79.8000 100 hurdat_atl main 241 232 O_____________ hurdat_atl AL071912 16.5000 -79.8000 HU 100 3 3 33
1912316N11280 1912 62 NA CS NOT_NAMED 1912-11-17 03:00:00 TS 16.6425 -79.7500 main 226 208 P_____________ AL071912 16.6425 -79.7500 HU 100 3 3 17
1912316N11280 1912 62 NA CS NOT_NAMED 1912-11-17 06:00:00 TS 16.8000 -79.7000 100 hurdat_atl main 208 193 O_____________ hurdat_atl AL071912 16.8000 -79.7000 HU 100 3 3 23
1912316N11280 1912 62 NA CS NOT_NAMED 1912-11-17 09:00:00 TS 16.9500 -79.6150 main 193 169 P_____________ AL071912 16.9500 -79.6150 HU 100 3 4 32
1912316N11280 1912 62 NA CS NOT_NAMED 1912-11-17 12:00:00 TS 17.1000 -79.5000 100 hurdat_atl main 169 154 O_____________ hurdat_atl AL071912 17.1000 -79.5000 HU 100 3 4 40
1912316N11280 1912 62 NA CS NOT_NAMED 1912-11-17 15:00:00 TS 17.2500 -79.3575 main 146 123 P_____________ AL071912 17.2500 -79.3575 HU 100 3 4 43
1912316N11280 1912 62 NA CS NOT_NAMED 1912-11-17 18:00:00 TS 17.4000 -79.2000 100 hurdat_atl main 123 107 O_____________ hurdat_atl AL071912 17.4000 -79.2000 HU 100 3 4 44
1912316N11280 1912 62 NA CS NOT_NAMED 1912-11-17 21:00:00 TS 17.5500 -79.0500 main 100 76 P_____________ AL071912 17.5500 -79.0500 HU 100 3 4 43
1912316N11280 1912 62 NA CS NOT_NAMED 1912-11-18 00:00:00 TS 17.7000 -78.9000 100 hurdat_atl main 76 61 O_____________ hurdat_atl AL071912 17.7000 -78.9000 HU 100 3 4 44
1912316N11280 1912 62 NA CS NOT_NAMED 1912-11-18 03:00:00 TS 17.8500 -78.7425 main 46 30 P_____________ AL071912 17.8500 -78.7425 HU 100 3 4 43
1912316N11280 1912 62 NA CS NOT_NAMED 1912-11-18 06:00:00 TS 18.0000 -78.6000 100 hurdat_atl main 30 10 O_____________ hurdat_atl AL071912 18.0000 -78.6000 HU 100 3 4 36
1912316N11280 1912 62 NA CS NOT_NAMED 1912-11-18 09:00:00 TS 18.1650 -78.5000 main 10 0 P_____________ AL071912 18.1650 -78.5000 HU 100 3 4 32
1912316N11280 1912 62 NA CS NOT_NAMED 1912-11-18 12:00:00 TS 18.3000 -78.4000 100 965 hurdat_atl main 10 0 O_____________ hurdat_atl AL071912 18.3000 -78.4000 HU 100 965 3 3 47
1912316N11280 1912 62 NA CS NOT_NAMED 1912-11-18 15:00:00 TS 18.3649 -78.2800 main 0 0 P_____________ AL071912 18.3649 -78.2800 HU 92 2 3 71
1912316N11280 1912 62 NA CS NOT_NAMED 1912-11-18 18:00:00 TS 18.4000 -78.1000 85 hurdat_atl main 0 0 O_____________ hurdat_atl AL071912 18.4000 -78.1000 HU 85 2 4 79
1912316N11280 1912 62 NA CS NOT_NAMED 1912-11-18 21:00:00 TS 18.4424 -77.8524 main 0 0 P_____________ AL071912 18.4424 -77.8524 HU 82 1 6 80
1912316N11280 1912 62 NA CS NOT_NAMED 1912-11-19 00:00:00 TS 18.5000 -77.5000 80 hurdat_atl main 11 11 O_____________ hurdat_atl AL071912 18.5000 -77.5000 HU 80 1 8 80
1912316N11280 1912 62 NA CS NOT_NAMED 1912-11-19 03:00:00 TS 18.5852 -77.0150 main 22 22 P_____________ AL071912 18.5852 -77.0150 HU 77 1 10 78
1912316N11280 1912 62 NA CS NOT_NAMED 1912-11-19 06:00:00 TS 18.7000 -76.5000 75 hurdat_atl main 53 53 O_____________ hurdat_atl AL071912 18.7000 -76.5000 HU 75 1 10 73
1912316N11280 1912 62 NA CS NOT_NAMED 1912-11-19 09:00:00 TS 18.8726 -76.0027 main 84 84 P_____________ AL071912 18.8726 -76.0027 HU 72 1 8 68
1912316N11280 1912 62 NA CS NOT_NAMED 1912-11-19 12:00:00 TS 19.0000 -75.7000 70 hurdat_atl main 101 101 O_____________ hurdat_atl AL071912 19.0000 -75.7000 HU 70 1 3 65
1912316N11280 1912 62 NA CS NOT_NAMED 1912-11-19 15:00:00 TS 18.9873 -75.7374 main 101 84 P_____________ AL071912 18.9873 -75.7374 HU 67 1 3 250
1912316N11280 1912 62 NA CS NOT_NAMED 1912-11-19 18:00:00 TS 18.9000 -76.0000 65 hurdat_atl main 84 67 O_____________ hurdat_atl AL071912 18.9000 -76.0000 HU 65 1 5 251
1912316N11280 1912 62 NA CS NOT_NAMED 1912-11-19 21:00:00 TS 18.8072 -76.2750 main 67 39 P_____________ AL071912 18.8072 -76.2750 HU 62 0 7 253
1912316N11280 1912 62 NA CS NOT_NAMED 1912-11-20 00:00:00 TS 18.7000 -76.7000 60 hurdat_atl main 39 22 O_____________ hurdat_atl AL071912 18.7000 -76.7000 TS 60 0 10 258
1912316N11280 1912 62 NA CS NOT_NAMED 1912-11-20 03:00:00 TS 18.6002 -77.3050 main 22 11 P_____________ AL071912 18.6002 -77.3050 TS 57 0 12 261
1912316N11280 1912 62 NA CS NOT_NAMED 1912-11-20 06:00:00 TS 18.5000 -78.0000 55 hurdat_atl main 11 0 O_____________ hurdat_atl AL071912 18.5000 -78.0000 TS 55 0 13 261
1912316N11280 1912 62 NA CS NOT_NAMED 1912-11-20 09:00:00 TS 18.3925 -78.6725 main 38 38 P_____________ AL071912 18.3925 -78.6725 TS 52 0 13 261
1912316N11280 1912 62 NA CS NOT_NAMED 1912-11-20 12:00:00 TS 18.3000 -79.3000 50 hurdat_atl main 95 95 O_____________ hurdat_atl AL071912 18.3000 -79.3000 TS 50 0 11 262
1912316N11280 1912 62 NA CS NOT_NAMED 1912-11-20 15:00:00 TS 18.2423 -79.8449 main 147 147 P_____________ AL071912 18.2423 -79.8449 TS 47 0 10 264
1912316N11280 1912 62 NA CS NOT_NAMED 1912-11-20 18:00:00 TS 18.2000 -80.3000 45 hurdat_atl main 200 200 O_____________ hurdat_atl AL071912 18.2000 -80.3000 TS 45 0 8 263
1912316N11280 1912 62 NA CS NOT_NAMED 1912-11-20 21:00:00 TS 18.1499 -80.6875 main 243 243 P_____________ AL071912 18.1499 -80.6875 TS 42 0 7 261
1912316N11280 1912 62 NA CS NOT_NAMED 1912-11-21 00:00:00 TS 18.1000 -81.0000 40 hurdat_atl main 274 274 O_____________ hurdat_atl AL071912 18.1000 -81.0000 TS 40 0 6 259
1912316N11280 1912 62 NA CS NOT_NAMED 1912-11-21 03:00:00 TS 18.0424 -81.2650 main 307 307 P_____________ AL071912 18.0424 -81.2650 TS 37 0 5 258
1912316N11280 1912 62 NA CS NOT_NAMED 1912-11-21 06:00:00 TS 18.0000 -81.5000 35 hurdat_atl main 328 328 O_____________ hurdat_atl AL071912 18.0000 -81.5000 TS 35 0 5 264
1912316N11280 1912 62 NA CS NOT_NAMED 1912-11-21 09:00:00 TS 17.9925 -81.7500 main 349 336 P_____________ AL071912 17.9925 -81.7500 TS 32 -1 5 270
1912316N11280 1912 62 NA CS NOT_NAMED 1912-11-21 12:00:00 TS 18.0000 -82.0000 30 hurdat_atl main 336 328 O_____________ hurdat_atl AL071912 18.0000 -82.0000 TD 30 -1 5 271
1912316N11280 1912 62 NA CS NOT_NAMED 1912-11-21 15:00:00 TS 18.0026 -82.2500 main 323 311 P_____________ AL071912 18.0026 -82.2500 TD 27 -1 5 270
1912316N11280 1912 62 NA CS NOT_NAMED 1912-11-21 18:00:00 TS 18.0000 -82.5000 25 hurdat_atl main 311 O_____________ hurdat_atl AL071912 18.0000 -82.5000 TD 25 -1 5 269

About IBTrACS Database

This database is a web-friendly format of International Best Track Archive for Climate Stewardship (IBTrACS), a global best track data archive curated by NOAA dating back to 1842.

Updated: 2021-10-27